sensor_id;sensor_type;location;lat;lon;timestamp;P1;durP1;ratioP1;P2;durP2;ratioP2
68208;SDS011;55662;47.488;19.074;2022-07-23T00:06:18;11.48;;;6.90;;
68208;SDS011;55662;47.488;19.074;2022-07-23T00:26:21;9.60;;;7.20;;
68208;SDS011;55662;47.488;19.074;2022-07-23T00:46:28;11.67;;;7.53;;
68208;SDS011;55662;47.488;19.074;2022-07-23T01:06:36;12.23;;;8.63;;
68208;SDS011;55662;47.488;19.074;2022-07-23T01:26:42;15.07;;;8.30;;
68208;SDS011;55662;47.488;19.074;2022-07-23T01:46:48;10.43;;;8.63;;
68208;SDS011;55662;47.488;19.074;2022-07-23T02:06:54;9.50;;;7.27;;
68208;SDS011;55662;47.488;19.074;2022-07-23T02:26:58;12.37;;;6.82;;
68208;SDS011;55662;47.488;19.074;2022-07-23T02:47:01;14.32;;;6.90;;
68208;SDS011;55662;47.488;19.074;2022-07-23T03:07:06;8.77;;;6.90;;
68208;SDS011;55662;47.488;19.074;2022-07-23T03:27:10;9.17;;;5.70;;
68208;SDS011;55662;47.488;19.074;2022-07-23T03:47:13;9.10;;;5.00;;
68208;SDS011;55662;47.488;19.074;2022-07-23T04:07:18;8.05;;;5.87;;
68208;SDS011;55662;47.488;19.074;2022-07-23T04:27:23;8.87;;;6.10;;
68208;SDS011;55662;47.488;19.074;2022-07-23T04:47:26;10.37;;;6.43;;
68208;SDS011;55662;47.488;19.074;2022-07-23T05:07:31;9.32;;;6.28;;
68208;SDS011;55662;47.488;19.074;2022-07-23T05:27:35;8.40;;;5.62;;
68208;SDS011;55662;47.488;19.074;2022-07-23T05:47:40;11.57;;;6.87;;
68208;SDS011;55662;47.488;19.074;2022-07-23T06:07:48;12.60;;;6.37;;
68208;SDS011;55662;47.488;19.074;2022-07-23T06:27:51;9.30;;;6.03;;
68208;SDS011;55662;47.488;19.074;2022-07-23T06:47:55;13.13;;;8.15;;
68208;SDS011;55662;47.488;19.074;2022-07-23T07:07:58;10.05;;;6.90;;
68208;SDS011;55662;47.488;19.074;2022-07-23T07:28:01;11.13;;;6.50;;
68208;SDS011;55662;47.488;19.074;2022-07-23T07:48:05;9.38;;;6.55;;
68208;SDS011;55662;47.488;19.074;2022-07-23T08:08:09;10.82;;;7.47;;
68208;SDS011;55662;47.488;19.074;2022-07-23T08:28:18;15.00;;;5.72;;
68208;SDS011;55662;47.488;19.074;2022-07-23T08:48:22;7.47;;;6.50;;
68208;SDS011;55662;47.488;19.074;2022-07-23T09:28:54;12.48;;;9.55;;
68208;SDS011;55662;47.488;19.074;2022-07-23T09:49:00;11.15;;;9.23;;
68208;SDS011;55662;47.488;19.074;2022-07-23T10:09:15;9.98;;;7.53;;
68208;SDS011;55662;47.488;19.074;2022-07-23T10:49:48;10.13;;;8.43;;
68208;SDS011;55662;47.488;19.074;2022-07-23T11:09:52;9.32;;;7.62;;
68208;SDS011;55662;47.488;19.074;2022-07-23T11:29:56;11.93;;;7.80;;
68208;SDS011;55662;47.488;19.074;2022-07-23T11:50:01;9.87;;;8.87;;
68208;SDS011;55662;47.488;19.074;2022-07-23T12:30:29;9.88;;;8.88;;
68208;SDS011;55662;47.488;19.074;2022-07-23T12:50:44;11.63;;;9.10;;
68208;SDS011;55662;47.488;19.074;2022-07-23T13:10:56;9.88;;;8.68;;
68208;SDS011;55662;47.488;19.074;2022-07-23T13:31:00;9.77;;;8.47;;
68208;SDS011;55662;47.488;19.074;2022-07-23T13:51:04;34.10;;;9.70;;
68208;SDS011;55662;47.488;19.074;2022-07-23T14:11:07;11.93;;;8.93;;
68208;SDS011;55662;47.488;19.074;2022-07-23T14:31:11;9.68;;;8.68;;
68208;SDS011;55662;47.488;19.074;2022-07-23T14:51:22;9.52;;;7.28;;
68208;SDS011;55662;47.488;19.074;2022-07-23T15:11:28;10.30;;;9.03;;
68208;SDS011;55662;47.488;19.074;2022-07-23T15:31:36;11.93;;;10.83;;
68208;SDS011;55662;47.488;19.074;2022-07-23T15:51:39;25.75;;;12.00;;
68208;SDS011;55662;47.488;19.074;2022-07-23T16:11:43;14.77;;;10.75;;
68208;SDS011;55662;47.488;19.074;2022-07-23T16:31:47;19.83;;;11.90;;
68208;SDS011;55662;47.488;19.074;2022-07-23T16:51:51;52.37;;;11.00;;
68208;SDS011;55662;47.488;19.074;2022-07-23T17:11:55;12.50;;;9.10;;
68208;SDS011;55662;47.488;19.074;2022-07-23T17:31:58;10.45;;;8.05;;
68208;SDS011;55662;47.488;19.074;2022-07-23T17:52:02;10.68;;;8.65;;
68208;SDS011;55662;47.488;19.074;2022-07-23T18:12:06;10.00;;;8.40;;
68208;SDS011;55662;47.488;19.074;2022-07-23T18:32:10;12.10;;;9.10;;
68208;SDS011;55662;47.488;19.074;2022-07-23T18:52:13;17.20;;;15.38;;
68208;SDS011;55662;47.488;19.074;2022-07-23T19:12:17;13.10;;;10.20;;
68208;SDS011;55662;47.488;19.074;2022-07-23T19:32:20;12.47;;;10.03;;
68208;SDS011;55662;47.488;19.074;2022-07-23T19:52:24;12.45;;;10.05;;
68208;SDS011;55662;47.488;19.074;2022-07-23T20:12:28;12.43;;;10.32;;
68208;SDS011;55662;47.488;19.074;2022-07-23T20:32:31;15.98;;;10.50;;
68208;SDS011;55662;47.488;19.074;2022-07-23T20:52:35;11.93;;;10.33;;
68208;SDS011;55662;47.488;19.074;2022-07-23T21:12:38;14.23;;;10.57;;
68208;SDS011;55662;47.488;19.074;2022-07-23T21:32:42;13.55;;;10.63;;
68208;SDS011;55662;47.488;19.074;2022-07-23T21:52:45;13.05;;;7.85;;
68208;SDS011;55662;47.488;19.074;2022-07-23T22:12:51;11.77;;;7.30;;
68208;SDS011;55662;47.488;19.074;2022-07-23T22:32:55;10.32;;;6.80;;
68208;SDS011;55662;47.488;19.074;2022-07-23T22:53:00;11.52;;;8.00;;
68208;SDS011;55662;47.488;19.074;2022-07-23T23:13:04;9.82;;;8.07;;
68208;SDS011;55662;47.488;19.074;2022-07-23T23:33:07;11.40;;;8.23;;
68208;SDS011;55662;47.488;19.074;2022-07-23T23:53:11;10.45;;;7.95;;
